首页
METAR-TAF:

METAR-TAF

机场 :

Resolute, 努那武特, 加拿大

纬度: 74-43N, 经度: 094-59W, 海拔: 67米

当前天气观测

该预报发布于23分钟前的23:19 UTC
风速2节,风向西转西北
温度 -28°C
湿度 68%
气压 1014 hPa
能見度: 24.1公里
天空无云
冰针

METAR: CYRB 182319Z 30002KT 15SM IC SKC M28/M32 A2995 RMK PCPN VRY LGT SLP156

时间: 17:42 (23:42 UTC)

预报

该预报发布于6小时和4分钟前的17:38 UTC
预报有效从18日的 18点(UTC)到 19日的 18点(UTC)
风速3节,风向多变
能見度: 10公里
天空无云
冰针
成为
从 19日的 02点(UTC)到 19日的 04点(UTC)
风速8节,风向

TAF: CYRB 181738Z 1818/1918 VRB03KT P6SM IC SKC BECMG 1902/1904 09008KT RMK NXT FCST BY 190000Z

超过4000个机场的气象观测和天气预报(METAR&TAF报告)。

可查询的气象台以黄色和红色小点在地图上表示。

将鼠标移到小点上方,可查看气象台名称。

然后点击查看天气观测和预报。

如需切换地图:点击带黑十字的绿色按钮放大地图;点击带横线的绿色按钮缩小地图;或者点击绿色箭头查看邻近地区的地图。


METAR-TAF: